Liner du mardi 13 février

Aller en bas

Liner du mardi 13 février

Message  laser le Lun 12 Fév 2018 - 10:41

yop yop

ID          FrequencyTrack Distance (nm) Coordinates Name/Remarks
MROC - 0 0 N09°59'38.05" W084°12'31.88" JUAN SANTAMARIA INTL
ISEBA - 108 87 N09°30'06.00" W082°49'50.10" ISEBA
BDT 114.9 104 36 N09°20'19.86" W082°15'06.34" BOCAS DEL TORO
PUDOS - 100 73 N09°05'02.00" W081°02'53.00" PUDOS
TBG 110 99 90 N08°47'15.26" W079°33'43.28" TABOGA
PUNBA - 122 70 N08°08'02.00" W078°35'06.00" PUNBA
IVROS - 122 61 N07°33'50.00" W077°43'48.00" IVROS
ISRAP - 122 76 N06°50'49.00" W076°41'06.00" ISRAP
KOTIN - 122 33 N06°32'00.00" W076°13'31.00" KOTIN
NENES - 122 30 N06°15'03.00" W075°48'46.00" NENES
SKRG - 100 24 N06°09'52.06" W075°25'22.80" RIONEGRO-JOSE MARIA CORDOVA
A waypoint can be enabled/disabled by clicking on it (except first two and last two waypoints).
11 fixes, 580 nm.
Airways:
MROC SID ISEBA UG440 TBG UA323 IVROS A323 NENES STAR SKRG
Provided by Rfsml RouteFinder
METAR:

Departure: MROC 120900Z 10013KT CAVOK 21/15 A2997 NOSIG
Destination: SKRG 120900Z 00000KT 8000 VCFG BKN010 SCT080 14/14 A3024
Fuel quantity for Boeing 737-800 (iFly/PMDG)
Fuel Time
Fuel Usage 9243 lbs 01:46
Reserve Fuel 6515 lbs 01:15
Fuel on Board 15758 lbs 03:01
Provided by Fuelplanner.com

PLN FSX clic içi
RTE PMDG clic içi

________________________________________________________________________________________________________________________________________________________________________________


Mon Matos
Intel Core i7-6700K OC 4.6 GHz/ 32 GO Crucial DDR4 Ballistix Sport LT 4x8 GO 2400MHz CAS 16/ Asus Z170 Deluxe/2xSSD 840 EVO 500GB P3D/2xSSD 840 EVO 250GB/ Mybook WD usb3.0  2Téra/Windows 10 PRO 64 bit
Gigabyte GeForce GTX 980 Ti G1 Gaming - 6 Go DDR5 / Enermax Ligtech 240-ELC-LT240-HP/ Boitier NZXT Phantom 820
Asus VG278 27" 3D/ Acer Z35 Predator 21/9 2560x1080 Incurver G-SYNC/ Antec Truepower Quattro 1200w/P3D V 4.1.7/ChasePlane V 0.4.191Beta Exp
avatar
laser

Number of posts : 2924
Age : 59
Location : Octon 34700
Registration date : 03/09/2008

http://www.youtube.com/user/KOCHONNET?feature=mhee

Revenir en haut Aller en bas

Revenir en haut

- Sujets similaires

 
Permission de ce forum:
Vous ne pouvez pas répondre aux sujets dans ce forum